Time;durP1;ratioP1;P1;durP2;ratioP2;P2;SDS_P1;SDS_P2;PMS_P1;PMS_P2;Temp;Humidity;BMP_temperature;BMP_pressure;BME280_temperature;BME280_humidity;BME280_pressure;Samples;Min_cycle;Max_cycle;Signal;HPM_P1;HPM_P2
2022/07/07 00:00:18;;;;;;;4.95;2.15;;;;;;;14.78;100.00;96341.00;1025987;28;20034;-71
2022/07/07 00:00:48;;;;;;;3.35;2.20;;;;;;;14.74;100.00;96343.41;1021767;28;20031;-72
2022/07/07 00:01:19;;;;;;;2.08;1.88;;;;;;;14.69;100.00;96340.81;1025825;28;20081;-74
2022/07/07 00:01:49;;;;;;;4.32;2.45;;;;;;;14.67;100.00;96344.78;1021532;28;20062;-73
2022/07/07 00:02:19;;;;;;;4.35;2.10;;;;;;;14.65;100.00;96339.75;1026139;28;20077;-73
2022/07/07 00:02:50;;;;;;;4.25;2.10;;;;;;;14.64;100.00;96343.47;1031921;28;20026;-73
2022/07/07 00:03:20;;;;;;;4.40;2.20;;;;;;;14.60;100.00;96339.81;1034215;28;20021;-72
2022/07/07 00:03:51;;;;;;;4.40;2.20;;;;;;;14.59;100.00;96348.78;1034110;28;20777;-73
2022/07/07 00:04:22;;;;;;;8.30;3.83;;;;;;;14.57;100.00;96340.34;1034030;28;20033;-73
2022/07/07 00:04:52;;;;;;;5.93;3.55;;;;;;;14.56;100.00;96336.91;1033967;28;20033;-72
2022/07/07 00:05:23;;;;;;;6.60;2.42;;;;;;;14.54;100.00;96335.59;1034258;28;20444;-73
2022/07/07 00:05:53;;;;;;;3.17;2.20;;;;;;;14.52;100.00;96340.34;1034298;28;20173;-74
2022/07/07 00:06:24;;;;;;;3.90;1.98;;;;;;;14.49;100.00;96343.53;1038086;28;20056;-72
2022/07/07 00:06:54;;;;;;;1.98;1.58;;;;;;;14.46;100.00;96346.72;1034057;28;20030;-72
2022/07/07 00:07:24;;;;;;;2.65;1.80;;;;;;;14.39;100.00;96337.25;1034212;28;20029;-71
2022/07/07 00:07:55;;;;;;;2.17;1.92;;;;;;;14.41;100.00;96341.44;1029949;28;20030;-72
2022/07/07 00:08:26;;;;;;;2.97;2.20;;;;;;;14.41;100.00;96336.94;1030238;28;20621;-73
2022/07/07 00:08:56;;;;;;;2.97;2.20;;;;;;;14.39;100.00;96339.88;1033874;28;20026;-72
2022/07/07 00:09:29;;;;;;;2.53;2.20;;;;;;;14.40;100.00;96335.38;1022109;28;20027;-71
2022/07/07 00:10:00;;;;;;;2.50;1.80;;;;;;;14.39;100.00;96337.25;1024213;28;20038;-72
2022/07/07 00:10:31;;;;;;;3.28;2.40;;;;;;;14.38;100.00;96338.31;1025904;28;20022;-73
2022/07/07 00:11:01;;;;;;;2.50;2.30;;;;;;;14.36;100.00;96334.34;1024570;28;20034;-73
2022/07/07 00:11:32;;;;;;;8.07;2.45;;;;;;;14.32;100.00;96333.31;1030678;28;20394;-74
2022/07/07 00:12:03;;;;;;;4.78;2.05;;;;;;;14.32;100.00;96331.47;1022491;28;20537;-73
2022/07/07 00:12:33;;;;;;;5.00;2.00;;;;;;;14.36;100.00;96340.41;1022270;28;20035;-73
2022/07/07 00:13:04;;;;;;;5.20;2.55;;;;;;;14.36;100.00;96340.41;1025354;28;20019;-74
2022/07/07 00:13:34;;;;;;;3.38;2.15;;;;;;;14.37;100.00;96339.34;1025777;28;20063;-73
2022/07/07 00:14:07;;;;;;;3.95;2.17;;;;;;;14.37;100.00;96335.91;1021929;28;20023;-72
2022/07/07 00:14:37;;;;;;;4.88;2.10;;;;;;;14.36;100.00;96340.41;1027641;28;20027;-72
2022/07/07 00:15:08;;;;;;;3.13;2.10;;;;;;;14.36;100.00;96339.63;1033770;28;20053;-73
2022/07/07 00:15:39;;;;;;;3.35;2.38;;;;;;;14.31;100.00;96334.38;1034159;28;20033;-73
2022/07/07 00:16:10;;;;;;;4.72;1.92;;;;;;;14.33;100.00;96340.97;1030094;28;20026;-73
2022/07/07 00:16:40;;;;;;;4.88;2.40;;;;;;;14.32;100.00;96334.09;1025860;28;20046;-73
2022/07/07 00:17:11;;;;;;;2.80;1.80;;;;;;;14.29;100.00;96328.59;1025559;28;20482;-71
2022/07/07 00:17:41;;;;;;;2.95;2.53;;;;;;;14.31;100.00;96337.00;1022240;28;20039;-72
2022/07/07 00:18:12;;;;;;;3.80;2.40;;;;;;;14.27;100.00;96328.84;1032356;28;20453;-73
2022/07/07 00:18:43;;;;;;;3.58;2.08;;;;;;;14.28;100.00;96335.69;1022146;29;20593;-72
2022/07/07 00:19:13;;;;;;;2.47;1.98;;;;;;;14.25;100.00;96328.34;1018142;29;20065;-72
2022/07/07 00:19:44;;;;;;;3.70;2.22;;;;;;;14.26;100.00;96337.81;1018995;29;20027;-72
2022/07/07 00:20:14;;;;;;;5.95;1.90;;;;;;;14.24;100.00;96331.22;1018484;28;20035;-73
2022/07/07 00:20:44;;;;;;;2.60;1.83;;;;;;;14.26;100.00;96340.47;1026124;28;20029;-73
2022/07/07 00:21:15;;;;;;;2.35;2.10;;;;;;;14.27;100.00;96336.75;1025693;28;20042;-72
2022/07/07 00:21:45;;;;;;;2.80;2.35;;;;;;;14.24;100.00;96328.59;1025230;28;20137;-73
2022/07/07 00:22:16;;;;;;;4.13;2.17;;;;;;;14.26;100.00;96331.75;1025807;28;20023;-72
2022/07/07 00:22:46;;;;;;;3.97;2.30;;;;;;;14.26;100.00;96334.41;1029992;28;20033;-74
2022/07/07 00:23:18;;;;;;;3.95;2.20;;;;;;;14.27;100.00;96335.97;1029717;28;20490;-72
2022/07/07 00:23:48;;;;;;;3.50;2.15;;;;;;;14.27;100.00;96335.97;1029904;28;20101;-73
2022/07/07 00:24:19;;;;;;;4.13;2.30;;;;;;;14.28;100.00;96333.03;1034274;28;20061;-73
2022/07/07 00:24:49;;;;;;;5.57;2.30;;;;;;;14.25;100.00;96338.91;1030038;28;20082;-72
2022/07/07 00:25:20;;;;;;;3.25;2.33;;;;;;;14.25;100.00;96344.19;1025759;28;20023;-71
2022/07/07 00:25:50;;;;;;;4.07;2.28;;;;;;;14.22;100.00;96336.78;1022152;28;20039;-74
2022/07/07 00:26:21;;;;;;;8.07;2.50;;;;;;;14.21;100.00;96337.84;1026175;28;20548;-72
2022/07/07 00:26:51;;;;;;;5.47;2.30;;;;;;;14.19;100.00;96332.06;1022268;28;20027;-70
2022/07/07 00:27:22;;;;;;;4.35;2.15;;;;;;;14.21;100.00;96334.41;1030062;28;20025;-74
2022/07/07 00:27:52;;;;;;;6.13;2.50;;;;;;;14.17;100.00;96334.16;1029951;28;20053;-73
2022/07/07 00:28:23;;;;;;;2.67;1.90;;;;;;;14.21;100.00;96337.84;1030299;28;20027;-72
2022/07/07 00:28:53;;;;;;;4.10;2.25;;;;;;;14.22;100.00;96344.72;1032502;28;20022;-73
2022/07/07 00:29:24;;;;;;;2.80;2.38;;;;;;;14.20;100.00;96338.13;1030002;28;20046;-73
2022/07/07 00:29:54;;;;;;;4.35;2.22;;;;;;;14.22;100.00;96342.06;1025903;28;20019;-72
2022/07/07 00:30:25;;;;;;;2.45;2.22;;;;;;;14.22;100.00;96339.44;1025680;28;20033;-72
2022/07/07 00:30:56;;;;;;;6.45;3.00;;;;;;;14.21;100.00;96340.47;1021930;28;20033;-72
2022/07/07 00:31:26;;;;;;;4.40;2.47;;;;;;;14.20;100.00;96335.47;1030214;28;20098;-72
2022/07/07 00:31:56;;;;;;;3.28;2.28;;;;;;;14.20;100.00;96330.97;1029095;28;20035;-72
2022/07/07 00:32:27;;;;;;;4.57;2.38;;;;;;;14.22;100.00;96342.06;1029952;28;20022;-72
2022/07/07 00:32:57;;;;;;;4.35;2.08;;;;;;;14.22;100.00;96343.91;1022101;28;20022;-72
2022/07/07 00:33:28;;;;;;;6.70;2.45;;;;;;;14.22;100.00;96342.06;1026018;28;20033;-73
2022/07/07 00:33:58;;;;;;;5.10;2.10;;;;;;;14.21;100.00;96343.13;1027980;28;20089;-74
2022/07/07 00:34:29;;;;;;;7.07;2.00;;;;;;;14.21;100.00;96343.13;1025585;28;20026;-72
2022/07/07 00:34:59;;;;;;;2.72;2.25;;;;;;;14.17;100.00;96339.44;1029727;28;20050;-72
2022/07/07 00:35:30;;;;;;;2.97;1.85;;;;;;;14.21;100.00;96342.31;1025062;28;20022;-71
2022/07/07 00:36:00;;;;;;;3.50;2.40;;;;;;;14.22;100.00;96339.44;1025984;28;20544;-72
2022/07/07 00:36:31;;;;;;;3.53;1.95;;;;;;;14.22;100.00;96344.72;1034136;28;20030;-73
2022/07/07 00:37:01;;;;;;;4.88;2.60;;;;;;;14.20;100.00;96341.53;1034136;28;20033;-72
2022/07/07 00:37:32;;;;;;;2.50;2.10;;;;;;;14.22;100.00;96341.25;1029897;28;20121;-72
2022/07/07 00:38:02;;;;;;;6.10;2.50;;;;;;;14.22;100.00;96342.06;1025628;28;20403;-72
2022/07/07 00:38:33;;;;;;;3.28;2.00;;;;;;;14.23;100.00;96341.00;1021932;29;20137;-74
2022/07/07 00:39:03;;;;;;;3.72;2.17;;;;;;;14.21;100.00;96348.38;1018033;29;20030;-73
2022/07/07 00:39:34;;;;;;;4.88;2.47;;;;;;;14.22;100.00;96343.91;1022138;29;20038;-72
2022/07/07 00:40:05;;;;;;;4.22;2.20;;;;;;;14.23;100.00;96343.63;1025852;28;20082;-73
2022/07/07 00:40:36;;;;;;;2.08;1.88;;;;;;;14.23;100.00;96350.78;1027187;28;20031;-72
2022/07/07 00:41:06;;;;;;;6.13;2.28;;;;;;;14.04;100.00;96316.25;1037864;28;20025;-72
2022/07/07 00:41:37;;;;;;;4.75;2.28;;;;;;;14.25;100.00;96348.63;1025396;28;20026;-70
2022/07/07 00:42:15;;;;;;;5.97;2.15;;;;;;;14.25;100.00;96348.63;1025922;28;20050;-73
2022/07/07 00:42:46;;;;;;;11.88;2.40;;;;;;;14.26;100.00;96344.97;1025950;28;20887;-71
2022/07/07 00:43:16;;;;;;;2.42;1.83;;;;;;;14.22;100.00;96350.00;1028293;28;20022;-73
2022/07/07 00:43:47;;;;;;;5.10;2.38;;;;;;;14.25;100.00;96348.63;1021737;28;20114;-72
2022/07/07 00:44:17;;;;;;;4.07;2.05;;;;;;;14.24;100.00;96347.06;1018204;29;20114;-72
2022/07/07 00:44:48;;;;;;;6.72;2.05;;;;;;;14.24;100.00;96342.56;1018136;29;20022;-72
2022/07/07 00:45:18;;;;;;;4.35;2.10;;;;;;;14.22;100.00;96334.16;1018174;28;20621;-72
2022/07/07 00:45:49;;;;;;;4.07;2.05;;;;;;;14.24;100.00;96336.50;1033838;28;20057;-73
2022/07/07 00:46:20;;;;;;;3.55;1.80;;;;;;;14.27;100.00;96344.69;1032486;28;20765;-71
2022/07/07 00:46:51;;;;;;;2.42;1.90;;;;;;;14.29;100.00;96336.50;1025895;28;20095;-73
2022/07/07 00:47:22;;;;;;;3.50;2.03;;;;;;;14.32;100.00;96349.16;1029661;28;20567;-72
2022/07/07 00:47:52;;;;;;;3.00;1.90;;;;;;;14.30;100.00;96335.44;1030260;28;20116;-73
2022/07/07 00:48:23;;;;;;;4.80;2.10;;;;;;;14.31;100.00;96337.78;1025671;28;20026;-72
2022/07/07 00:48:53;;;;;;;3.72;1.95;;;;;;;14.27;100.00;96334.13;1025758;28;20023;-73
2022/07/07 00:49:24;;;;;;;2.92;2.00;;;;;;;14.31;100.00;96337.78;1023140;28;20027;-72
2022/07/07 00:49:54;;;;;;;6.22;2.20;;;;;;;14.30;100.00;96341.50;1025632;28;20030;-71
2022/07/07 00:50:25;;;;;;;3.03;2.08;;;;;;;14.29;100.00;96337.28;1021956;29;20098;-72
2022/07/07 00:50:55;;;;;;;5.18;2.10;;;;;;;14.26;100.00;96337.81;1021949;28;20046;-72
2022/07/07 00:51:26;;;;;;;6.55;2.10;;;;;;;14.28;100.00;96343.59;1025733;28;20589;-72
2022/07/07 00:51:56;;;;;;;4.20;2.00;;;;;;;14.28;100.00;96342.81;1021532;28;20039;-72
2022/07/07 00:52:27;;;;;;;3.05;1.88;;;;;;;14.29;100.00;96347.84;1021660;29;20066;-72
2022/07/07 00:52:57;;;;;;;4.75;2.58;;;;;;;14.30;100.00;96340.72;1022193;28;20031;-71
2022/07/07 00:53:28;;;;;;;7.07;2.28;;;;;;;14.31;100.00;96337.00;1025654;28;20085;-71
2022/07/07 00:53:58;;;;;;;3.72;2.13;;;;;;;14.30;100.00;96340.72;1032486;28;20034;-72
2022/07/07 00:54:28;;;;;;;5.65;1.92;;;;;;;14.30;100.00;96340.72;1029668;28;20408;-71
2022/07/07 00:55:00;;;;;;;3.20;2.00;;;;;;;14.29;100.00;96337.28;1029392;28;20034;-73
2022/07/07 00:55:30;;;;;;;5.10;2.35;;;;;;;14.28;100.00;96340.19;1033858;28;20029;-71
2022/07/07 00:56:01;;;;;;;6.18;2.30;;;;;;;14.28;100.00;96340.97;1032575;28;20726;-72
2022/07/07 00:56:31;;;;;;;4.22;2.30;;;;;;;14.27;100.00;96333.34;1033692;28;20030;-70
2022/07/07 00:57:03;;;;;;;3.03;2.15;;;;;;;14.24;100.00;96329.38;1025333;28;20023;-71
2022/07/07 00:57:33;;;;;;;5.40;2.13;;;;;;;14.29;100.00;96337.28;1025762;28;20034;-73
2022/07/07 00:58:04;;;;;;;4.88;2.25;;;;;;;14.29;100.00;96339.94;1032788;28;20531;-72
2022/07/07 00:58:35;;;;;;;4.68;2.15;;;;;;;14.30;100.00;96335.44;1029638;28;20060;-71
2022/07/07 00:59:06;;;;;;;3.45;2.50;;;;;;;14.27;100.00;96335.97;1025126;28;20062;-71
2022/07/07 00:59:37;;;;;;;4.22;2.10;;;;;;;14.27;100.00;96334.13;1021340;28;20024;-71
2022/07/07 01:00:09;;;;;;;3.40;2.25;;;;;;;14.23;100.00;96330.44;1025896;28;20019;-71
2022/07/07 01:00:41;;;;;;;3.35;2.28;;;;;;;14.25;100.00;96333.63;1021626;29;20028;-71
2022/07/07 01:01:12;;;;;;;4.10;2.60;;;;;;;14.25;100.00;96332.81;1021816;29;20688;-72
2022/07/07 01:01:42;;;;;;;2.85;2.00;;;;;;;14.21;100.00;96332.56;1021677;28;20138;-71
2022/07/07 01:02:13;;;;;;;5.50;2.25;;;;;;;14.17;100.00;96325.47;1022206;28;20031;-70
2022/07/07 01:02:44;;;;;;;4.82;2.03;;;;;;;14.18;100.00;96333.09;1025791;28;20019;-72
2022/07/07 01:03:14;;;;;;;2.90;2.20;;;;;;;14.19;100.00;96334.69;1025678;28;20030;-72
2022/07/07 01:03:45;;;;;;;2.53;2.00;;;;;;;14.18;100.00;96329.66;1029888;28;20158;-73
2022/07/07 01:04:17;;;;;;;3.72;2.40;;;;;;;14.20;100.00;96338.13;1030062;28;20094;-71
2022/07/07 01:04:50;;;;;;;8.00;2.92;;;;;;;14.17;100.00;96331.53;1029051;28;20049;-72
2022/07/07 01:05:21;;;;;;;4.63;2.00;;;;;;;14.15;100.00;96331.00;1025807;28;20577;-73
2022/07/07 01:05:52;;;;;;;2.35;1.95;;;;;;;14.15;100.00;96328.34;1021433;28;20082;-72
2022/07/07 01:06:22;;;;;;;7.13;2.40;;;;;;;14.07;100.00;96316.50;1021781;29;20026;-71
2022/07/07 01:06:53;;;;;;;3.22;2.20;;;;;;;14.11;100.00;96324.69;1026257;28;20101;-71
2022/07/07 01:07:23;;;;;;;3.28;1.80;;;;;;;14.09;100.00;96330.25;1029684;28;20108;-73
2022/07/07 01:07:53;;;;;;;5.63;2.30;;;;;;;14.06;100.00;96322.84;1018014;29;20031;-69
2022/07/07 01:08:24;;;;;;;5.32;2.08;;;;;;;14.07;100.00;96326.28;1024996;28;20042;-71
2022/07/07 01:08:54;;;;;;;2.67;1.77;;;;;;;14.03;100.00;96322.63;1025783;28;20085;-72
2022/07/07 01:09:25;;;;;;;2.28;2.08;;;;;;;14.04;100.00;96324.97;1033873;28;20021;-73
2022/07/07 01:09:56;;;;;;;6.55;2.28;;;;;;;14.05;100.00;96323.13;1037910;28;20084;-71
2022/07/07 01:10:26;;;;;;;3.03;2.17;;;;;;;14.04;100.00;96327.59;1033860;28;20110;-72
2022/07/07 01:10:57;;;;;;;3.53;2.45;;;;;;;14.01;100.00;96322.09;1028276;28;20094;-70
2022/07/07 01:11:27;;;;;;;3.92;3.28;;;;;;;14.03;100.00;96327.88;1019467;28;20027;-72
2022/07/07 01:11:58;;;;;;;7.03;2.15;;;;;;;14.01;100.00;96322.09;1020894;28;20023;-72
2022/07/07 01:12:40;;;;;;;3.35;2.00;;;;;;;13.99;100.00;96319.72;1025599;28;20050;-71
2022/07/07 01:13:11;;;;;;;4.60;2.05;;;;;;;13.98;100.00;96323.41;1028166;28;20035;-72
2022/07/07 01:13:42;;;;;;;2.65;2.42;;;;;;;13.97;100.00;96321.03;1027113;28;20023;-71
2022/07/07 01:14:12;;;;;;;4.05;2.28;;;;;;;13.95;100.00;96323.16;1029404;28;20038;-72
2022/07/07 01:14:43;;;;;;;4.70;2.13;;;;;;;13.95;100.00;96323.97;1034248;28;20498;-72
2022/07/07 01:15:14;;;;;;;3.72;2.10;;;;;;;13.91;100.00;96313.13;1029860;28;20026;-72
2022/07/07 01:15:44;;;;;;;3.47;1.90;;;;;;;13.91;100.00;96313.13;1021533;29;20615;-73
2022/07/07 01:16:17;;;;;;;2.55;2.22;;;;;;;13.94;100.00;96318.94;1018027;29;20055;-71
2022/07/07 01:16:48;;;;;;;2.55;2.25;;;;;;;13.89;100.00;96315.28;1022603;28;20110;-71
2022/07/07 01:17:18;;;;;;;5.25;2.17;;;;;;;13.90;100.00;96316.84;1026199;28;20035;-72
2022/07/07 01:17:49;;;;;;;5.65;2.40;;;;;;;13.88;100.00;96318.97;1022153;28;20050;-71
2022/07/07 01:18:19;;;;;;;4.30;2.58;;;;;;;13.86;100.00;96318.44;1024350;28;20962;-71
2022/07/07 01:18:50;;;;;;;4.65;2.25;;;;;;;13.86;100.00;96321.09;1030158;28;20073;-71
2022/07/07 01:19:20;;;;;;;4.95;2.47;;;;;;;13.86;100.00;96315.81;1025775;28;20057;-72
2022/07/07 01:19:51;;;;;;;3.17;2.40;;;;;;;13.85;100.00;96314.22;1023738;28;20034;-72
2022/07/07 01:20:21;;;;;;;3.75;2.35;;;;;;;13.81;100.00;96310.53;1018038;29;20035;-72
2022/07/07 01:20:52;;;;;;;4.35;2.35;;;;;;;13.86;100.00;96318.44;1017799;29;20517;-71
2022/07/07 01:21:22;;;;;;;3.15;2.53;;;;;;;13.82;100.00;96314.78;1021565;28;20041;-70
2022/07/07 01:21:57;;;;;;;3.65;2.63;;;;;;;13.79;100.00;96310.03;1020767;29;20057;-73
2022/07/07 01:22:28;;;;;;;6.72;2.72;;;;;;;13.80;100.00;96308.97;1017649;29;20586;-71
2022/07/07 01:22:59;;;;;;;3.85;2.40;;;;;;;13.81;100.00;96315.03;1029830;28;20787;-72
2022/07/07 01:23:29;;;;;;;4.15;2.53;;;;;;;13.81;100.00;96312.38;1025753;28;20027;-73
2022/07/07 01:24:00;;;;;;;2.38;2.10;;;;;;;13.83;100.00;96315.56;1024759;28;20065;-70
2022/07/07 01:24:30;;;;;;;2.67;1.95;;;;;;;13.81;100.00;96315.81;1031482;28;20026;-73
2022/07/07 01:25:01;;;;;;;3.42;2.33;;;;;;;13.81;100.00;96313.16;1037911;28;20021;-71
2022/07/07 01:25:31;;;;;;;7.78;2.53;;;;;;;13.82;100.00;96317.41;1029888;28;20553;-73
2022/07/07 01:26:02;;;;;;;3.15;2.38;;;;;;;13.81;100.00;96321.09;1029696;28;20074;-73
2022/07/07 01:26:32;;;;;;;3.47;2.15;;;;;;;13.78;100.00;96308.47;1029762;28;20073;-73
2022/07/07 01:27:09;;;;;;;4.68;2.00;;;;;;;13.84;100.00;96320.53;1025999;28;20057;-73
2022/07/07 01:27:40;;;;;;;3.42;2.15;;;;;;;13.80;100.00;96322.16;1030589;28;20030;-72
2022/07/07 01:28:10;;;;;;;6.10;2.40;;;;;;;13.83;100.00;96321.63;1027449;28;20557;-73
2022/07/07 01:28:41;;;;;;;7.95;2.38;;;;;;;13.83;100.00;96318.97;1022985;29;20027;-71
2022/07/07 01:29:12;;;;;;;4.28;2.15;;;;;;;13.83;100.00;96323.47;1024409;28;20127;-72
2022/07/07 01:29:46;;;;;;;4.30;2.58;;;;;;;13.84;100.00;96323.19;1028230;28;20030;-73
2022/07/07 01:30:17;;;;;;;4.20;2.40;;;;;;;13.83;100.00;96324.25;1027901;28;20398;-74
2022/07/07 01:30:47;;;;;;;3.38;2.00;;;;;;;13.83;100.00;96318.19;1031506;28;20022;-73
2022/07/07 01:31:18;;;;;;;3.72;2.03;;;;;;;13.82;100.00;96317.41;1027687;28;20866;-72
2022/07/07 01:31:48;;;;;;;7.20;2.40;;;;;;;13.77;100.00;96314.78;1023573;28;20062;-73
2022/07/07 01:32:19;;;;;;;5.90;2.20;;;;;;;13.81;100.00;96313.16;1025640;28;20034;-72
2022/07/07 01:32:50;;;;;;;3.63;2.03;;;;;;;13.82;100.00;96317.41;1027771;28;20027;-71
2022/07/07 01:33:20;;;;;;;2.60;2.10;;;;;;;13.81;100.00;96321.09;1027523;28;20027;-71
2022/07/07 01:33:51;;;;;;;2.85;2.15;;;;;;;13.81;100.00;96315.03;1027903;28;20026;-72
2022/07/07 01:34:21;;;;;;;3.88;2.30;;;;;;;13.83;100.00;96318.97;1028864;28;20045;-70
2022/07/07 01:34:52;;;;;;;8.02;2.20;;;;;;;13.81;100.00;96323.72;1038417;28;20017;-72
2022/07/07 01:35:22;;;;;;;6.82;2.10;;;;;;;13.83;100.00;96316.34;1031261;28;20018;-72
2022/07/07 01:35:53;;;;;;;5.03;2.10;;;;;;;13.81;100.00;96312.38;1033851;28;20081;-72
2022/07/07 01:36:23;;;;;;;4.45;2.42;;;;;;;13.81;100.00;96313.16;1035847;28;20025;-73
2022/07/07 01:36:54;;;;;;;4.05;2.00;;;;;;;13.80;100.00;96322.16;1027707;28;20042;-73
2022/07/07 01:37:25;;;;;;;3.58;2.00;;;;;;;13.81;100.00;96323.72;1030382;28;21572;-73
2022/07/07 01:37:55;;;;;;;3.05;2.20;;;;;;;13.80;100.00;96316.88;1028117;28;20034;-73
2022/07/07 01:38:26;;;;;;;4.32;2.17;;;;;;;13.76;100.00;96309.78;1024202;28;20027;-71
2022/07/07 01:38:56;;;;;;;6.55;1.90;;;;;;;13.74;100.00;96312.66;1023218;29;20561;-72
2022/07/07 01:39:27;;;;;;;6.93;2.72;;;;;;;13.74;100.00;96315.31;1020822;29;20831;-73
2022/07/07 01:39:58;;;;;;;3.88;2.33;;;;;;;13.77;100.00;96314.78;1026291;28;20027;-72
2022/07/07 01:40:28;;;;;;;2.35;2.08;;;;;;;13.78;100.00;96313.72;1024276;29;20070;-72
2022/07/07 01:40:59;;;;;;;3.83;2.13;;;;;;;13.76;100.00;96320.31;1024658;28;20071;-72
2022/07/07 01:41:29;;;;;;;5.18;2.40;;;;;;;13.78;100.00;96321.66;1028469;28;20043;-74
2022/07/07 01:42:00;;;;;;;3.67;2.08;;;;;;;13.78;100.00;96319.00;1030300;28;20026;-71
2022/07/07 01:42:30;;;;;;;4.28;2.55;;;;;;;13.77;100.00;96322.69;1032440;28;21722;-72
2022/07/07 01:43:01;;;;;;;6.78;2.40;;;;;;;13.70;100.00;96298.44;1025244;28;20038;-72
2022/07/07 01:43:31;;;;;;;5.10;1.98;;;;;;;13.82;100.00;96321.91;1028895;28;20039;-71
2022/07/07 01:44:02;;;;;;;5.40;2.08;;;;;;;13.82;100.00;96313.97;1032964;28;20120;-72
2022/07/07 01:44:33;;;;;;;3.60;2.42;;;;;;;13.80;100.00;96305.53;1034971;28;20064;-71
2022/07/07 01:45:04;;;;;;;2.83;2.13;;;;;;;13.78;100.00;96308.47;1038795;28;20104;-72
2022/07/07 01:45:34;;;;;;;4.32;2.42;;;;;;;13.81;100.00;96313.16;1034649;28;20065;-72
2022/07/07 01:46:05;;;;;;;3.45;2.30;;;;;;;13.80;100.00;96316.88;1026457;28;20030;-72
2022/07/07 01:46:35;;;;;;;3.83;2.08;;;;;;;13.80;100.00;96311.59;1026694;28;20039;-72
2022/07/07 01:47:06;;;;;;;4.28;2.50;;;;;;;13.81;100.00;96310.53;1034513;28;20111;-71
2022/07/07 01:47:36;;;;;;;2.58;1.80;;;;;;;13.82;100.00;96304.22;1032316;28;20030;-71
2022/07/07 01:48:07;;;;;;;4.47;2.42;;;;;;;13.83;100.00;96307.63;1030516;28;20524;-71
2022/07/07 01:48:37;;;;;;;4.57;2.22;;;;;;;13.80;100.00;96306.31;1026434;28;20052;-73
2022/07/07 01:49:08;;;;;;;5.80;2.40;;;;;;;13.79;100.00;96307.38;1030136;28;20066;-70
2022/07/07 01:49:38;;;;;;;2.85;1.83;;;;;;;13.77;100.00;96312.13;1030656;28;20681;-72
2022/07/07 01:50:09;;;;;;;2.78;1.90;;;;;;;13.78;100.00;96305.00;1026634;28;20037;-73
2022/07/07 01:50:39;;;;;;;9.80;2.55;;;;;;;13.80;100.00;96310.81;1030812;28;20037;-72
2022/07/07 01:51:10;;;;;;;3.58;2.28;;;;;;;13.78;100.00;96303.19;1026220;28;20079;-72
2022/07/07 01:51:40;;;;;;;5.15;2.60;;;;;;;13.80;100.00;96306.31;1022091;29;20639;-72
2022/07/07 01:52:11;;;;;;;3.70;2.28;;;;;;;13.75;100.00;96302.91;1027896;28;20031;-71
2022/07/07 01:52:41;;;;;;;3.00;1.90;;;;;;;13.79;100.00;96302.13;1027981;28;20081;-71
2022/07/07 01:53:12;;;;;;;5.03;2.35;;;;;;;13.79;100.00;96309.25;1025009;28;20990;-72
2022/07/07 01:53:42;;;;;;;3.90;2.20;;;;;;;13.75;100.00;96295.81;1026401;28;20079;-72
2022/07/07 01:54:13;;;;;;;5.13;2.65;;;;;;;13.77;100.00;96298.16;1026249;28;20027;-71
2022/07/07 01:54:44;;;;;;;4.57;2.60;;;;;;;13.79;100.00;96307.38;1034640;28;20029;-73
2022/07/07 01:55:14;;;;;;;4.47;2.40;;;;;;;13.79;100.00;96310.03;1026406;28;20720;-72
2022/07/07 01:55:44;;;;;;;2.88;2.33;;;;;;;13.81;100.00;96307.88;1034534;28;20057;-72
2022/07/07 01:56:15;;;;;;;4.93;2.25;;;;;;;13.81;100.00;96310.53;1026311;28;20035;-71
2022/07/07 01:56:45;;;;;;;6.95;2.25;;;;;;;13.81;100.00;96309.75;1029834;28;20180;-72
2022/07/07 01:57:16;;;;;;;4.25;2.17;;;;;;;13.73;100.00;96299.75;1026261;28;20026;-73
2022/07/07 01:57:46;;;;;;;7.97;2.78;;;;;;;13.79;100.00;96303.97;1026103;28;20011;-72
2022/07/07 01:58:17;;;;;;;4.90;2.60;;;;;;;13.79;100.00;96302.13;1026385;28;20027;-73
2022/07/07 01:58:47;;;;;;;3.97;2.40;;;;;;;13.79;100.00;96303.97;1030698;28;20038;-72
2022/07/07 01:59:18;;;;;;;4.55;2.15;;;;;;;13.79;100.00;96303.97;1030400;28;20727;-71
2022/07/07 01:59:48;;;;;;;3.45;2.10;;;;;;;13.78;100.00;96303.19;1034729;28;20169;-72
2022/07/07 02:00:19;;;;;;;5.15;2.30;;;;;;;13.75;100.00;96303.72;1034460;28;20030;-72
2022/07/07 02:00:49;;;;;;;3.92;2.75;;;;;;;13.74;100.00;96303.97;1034456;28;20065;-71
2022/07/07 02:01:19;;;;;;;2.38;2.17;;;;;;;13.74;100.00;96310.03;1037014;28;20033;-72
2022/07/07 02:01:50;;;;;;;4.55;2.30;;;;;;;13.74;100.00;96312.66;1033713;28;20034;-72
2022/07/07 02:02:20;;;;;;;3.72;2.22;;;;;;;13.74;100.00;96311.88;1034446;28;20095;-72
2022/07/07 02:02:51;;;;;;;3.13;2.30;;;;;;;13.67;100.00;96291.06;1030678;28;20077;-72
2022/07/07 02:03:21;;;;;;;3.92;2.30;;;;;;;13.73;100.00;96311.09;1026336;28;20058;-71
2022/07/07 02:03:52;;;;;;;3.40;2.00;;;;;;;13.73;100.00;96300.53;1030599;28;20074;-72
2022/07/07 02:04:22;;;;;;;6.47;2.25;;;;;;;13.73;100.00;96299.75;1030567;28;20429;-72
2022/07/07 02:04:53;;;;;;;3.88;2.20;;;;;;;13.72;100.00;96308.75;1036459;28;20041;-72
2022/07/07 02:05:23;;;;;;;4.15;2.13;;;;;;;13.70;100.00;96308.19;1033689;28;20145;-72
2022/07/07 02:05:54;;;;;;;3.92;2.30;;;;;;;13.69;100.00;96296.88;1030521;28;20073;-73
2022/07/07 02:06:24;;;;;;;5.25;2.20;;;;;;;13.70;100.00;96298.44;1025869;28;20139;-71
2022/07/07 02:06:55;;;;;;;6.20;2.63;;;;;;;13.70;100.00;96295.81;1026363;28;20042;-73
2022/07/07 02:07:25;;;;;;;3.42;2.83;;;;;;;13.71;100.00;96301.88;1034314;28;20096;-71
2022/07/07 02:07:56;;;;;;;3.38;1.92;;;;;;;13.64;100.00;96286.31;1032950;28;20050;-73
2022/07/07 02:08:26;;;;;;;5.43;2.63;;;;;;;13.68;100.00;96303.19;1035647;28;20060;-71
2022/07/07 02:08:57;;;;;;;5.45;2.35;;;;;;;13.66;100.00;96300.03;1032230;28;20049;-72
2022/07/07 02:09:27;;;;;;;4.25;2.33;;;;;;;13.63;100.00;96296.09;1029748;28;20656;-72
2022/07/07 02:10:00;;;;;;;3.85;2.15;;;;;;;13.63;100.00;96300.56;1026268;28;20433;-70
2022/07/07 02:11:20;;;;;;;3.05;2.45;;;;;;;13.59;100.00;96295.03;1028365;28;20121;-71
2022/07/07 02:11:50;;;;;;;3.50;2.33;;;;;;;13.59;100.00;96302.16;1032692;28;20423;-71
2022/07/07 02:12:21;;;;;;;3.63;2.20;;;;;;;13.55;100.00;96298.50;1033064;28;20482;-72
2022/07/07 02:12:51;;;;;;;4.88;2.40;;;;;;;13.58;100.00;96303.22;1033511;28;20033;-72
2022/07/07 02:13:22;;;;;;;8.38;2.60;;;;;;;13.57;100.00;96301.63;1030367;28;20031;-71
2022/07/07 02:13:53;;;;;;;5.68;2.67;;;;;;;13.52;100.00;96296.38;1029665;28;20067;-72
2022/07/07 02:14:23;;;;;;;6.03;2.53;;;;;;;13.54;100.00;96296.91;1034315;28;20103;-71
2022/07/07 02:14:54;;;;;;;3.55;1.98;;;;;;;13.54;100.00;96302.16;1032023;28;20034;-72
2022/07/07 02:15:24;;;;;;;3.50;2.70;;;;;;;13.52;100.00;96293.75;1034398;28;20025;-72
2022/07/07 02:15:55;;;;;;;7.82;2.10;;;;;;;13.52;100.00;96299.03;1030335;28;20030;-72
2022/07/07 02:16:25;;;;;;;5.03;2.20;;;;;;;13.50;100.00;96304.56;1033907;28;20034;-72
2022/07/07 02:16:56;;;;;;;2.80;2.30;;;;;;;13.50;100.00;96294.00;1034547;28;20018;-72
2022/07/07 02:17:26;;;;;;;3.13;2.80;;;;;;;13.50;100.00;96301.13;1034494;28;20033;-71
2022/07/07 02:17:57;;;;;;;4.28;2.17;;;;;;;13.48;100.00;96297.97;1038581;28;20489;-72
2022/07/07 02:18:28;;;;;;;3.90;2.38;;;;;;;13.47;100.00;96297.16;1038282;28;20552;-73
2022/07/07 02:18:59;;;;;;;5.28;2.30;;;;;;;13.41;100.00;96292.97;1034697;28;20014;-73
2022/07/07 02:19:29;;;;;;;4.30;2.30;;;;;;;13.43;100.00;96296.13;1026380;28;20104;-72
2022/07/07 02:20:00;;;;;;;9.60;2.60;;;;;;;13.42;100.00;96302.47;1025733;28;20119;-73
2022/07/07 02:20:31;;;;;;;5.15;2.30;;;;;;;13.38;100.00;96294.31;1030386;28;20033;-71
2022/07/07 02:21:02;;;;;;;5.88;2.13;;;;;;;13.37;100.00;96291.91;1023480;28;20032;-70
2022/07/07 02:21:33;;;;;;;6.53;2.13;;;;;;;13.40;100.00;96296.66;1022587;28;20507;-71
2022/07/07 02:22:04;;;;;;;2.72;2.22;;;;;;;13.39;100.00;96305.63;1015962;29;20079;-71
2022/07/07 02:22:34;;;;;;;2.78;2.00;;;;;;;13.37;100.00;96303.25;1018325;29;20024;-72
2022/07/07 02:23:04;;;;;;;3.58;2.30;;;;;;;13.36;100.00;96301.69;1022522;28;20023;-72
2022/07/07 02:23:35;;;;;;;3.47;2.42;;;;;;;13.32;100.00;96287.44;1022289;28;20622;-71